Time;durP1;ratioP1;P1;durP2;ratioP2;P2;SDS_P1;SDS_P2;PMS_P1;PMS_P2;Temp;Humidity;BMP_temperature;BMP_pressure;BME280_temperature;BME280_humidity;BME280_pressure;Samples;Min_cycle;Max_cycle;Signal;HPM_P1;HPM_P2
2022/07/11 00:01:09;;;;;;;14.35;2.30;;;;;;;17.74;83.74;102405.34;4966375;28;20407;-28
2022/07/11 00:03:35;;;;;;;11.75;1.85;;;;;;;17.78;83.61;102403.94;4977706;28;20037;-28
2022/07/11 00:06:01;;;;;;;13.85;2.22;;;;;;;17.83;83.40;102402.56;4974735;28;20696;-29
2022/07/11 00:08:26;;;;;;;8.32;2.17;;;;;;;17.87;82.76;102406.56;4974540;28;20054;-30
2022/07/11 00:10:51;;;;;;;13.48;2.00;;;;;;;17.84;82.79;102394.19;4975003;28;20031;-30
2022/07/11 00:13:17;;;;;;;10.18;1.80;;;;;;;17.81;82.05;102400.03;4975225;28;20026;-29
2022/07/11 00:15:42;;;;;;;8.73;1.92;;;;;;;17.81;81.60;102401.91;4974945;28;20441;-29
2022/07/11 00:18:07;;;;;;;6.53;1.60;;;;;;;17.86;81.59;102394.84;4975014;28;20047;-29
2022/07/11 00:20:33;;;;;;;7.90;1.70;;;;;;;17.90;81.47;102395.28;4974987;28;20038;-28
2022/07/11 00:22:58;;;;;;;6.75;1.45;;;;;;;17.93;81.49;102395.75;4974417;28;20484;-29
2022/07/11 00:25:23;;;;;;;7.00;2.05;;;;;;;17.99;81.41;102394.16;4975467;28;20027;-30
2022/07/11 00:27:49;;;;;;;12.20;2.17;;;;;;;18.04;80.74;102386.25;4974956;28;20027;-29
2022/07/11 00:30:16;;;;;;;8.18;1.77;;;;;;;18.07;80.98;102379.56;4974378;28;20038;-29
2022/07/11 00:32:41;;;;;;;6.90;1.70;;;;;;;18.07;80.69;102383.13;4973856;28;20046;-29
2022/07/11 00:35:07;;;;;;;9.07;1.73;;;;;;;18.04;80.74;102391.69;4973239;28;20402;-29
2022/07/11 00:37:32;;;;;;;6.93;1.80;;;;;;;18.02;81.08;102390.19;4974502;28;20476;-29
2022/07/11 00:39:59;;;;;;;8.93;2.08;;;;;;;18.00;81.19;102390.38;4974163;28;20081;-30
2022/07/11 00:42:25;;;;;;;7.55;1.63;;;;;;;18.05;81.19;102393.38;4973846;28;20066;-30
2022/07/11 00:44:50;;;;;;;11.75;1.67;;;;;;;18.09;80.59;102388.34;4973627;28;20067;-30
2022/07/11 00:47:15;;;;;;;7.00;1.73;;;;;;;18.06;80.59;102386.91;4973945;28;20027;-29
2022/07/11 00:49:41;;;;;;;8.85;2.13;;;;;;;18.06;81.08;102384.16;4973425;28;20041;-30
2022/07/11 00:52:06;;;;;;;8.27;1.83;;;;;;;18.08;80.69;102383.97;4973380;28;20033;-30
2022/07/11 00:54:32;;;;;;;8.80;1.70;;;;;;;18.08;80.49;102379.34;4973593;28;20488;-29
2022/07/11 00:56:57;;;;;;;11.40;2.30;;;;;;;18.09;80.38;102385.63;4974294;28;20046;-29
2022/07/11 00:59:23;;;;;;;5.97;1.50;;;;;;;18.10;80.11;102385.44;4974322;28;20031;-29
2022/07/11 01:01:48;;;;;;;6.78;1.63;;;;;;;18.08;80.33;102387.53;4968293;28;20027;-30
2022/07/11 01:04:13;;;;;;;5.53;2.10;;;;;;;18.07;79.89;102387.72;4972870;28;20038;-28
2022/07/11 01:06:39;;;;;;;6.40;1.63;;;;;;;18.08;80.29;102398.41;4954604;28;20027;-29
2022/07/11 01:09:05;;;;;;;6.72;1.45;;;;;;;18.05;80.13;102398.81;4973126;28;20680;-29
2022/07/11 01:11:30;;;;;;;6.85;1.90;;;;;;;18.04;80.59;102391.69;4972928;28;20113;-29
2022/07/11 01:13:56;;;;;;;8.63;2.00;;;;;;;18.04;80.44;102388.13;4973844;28;20039;-29
2022/07/11 01:16:22;;;;;;;7.78;1.63;;;;;;;18.04;80.77;102388.97;4973847;28;20034;-30
2022/07/11 01:18:51;;;;;;;9.68;1.88;;;;;;;18.03;80.58;102381.81;4973564;28;20058;-28
2022/07/11 01:21:40;;;;;;;6.63;1.73;;;;;;;18.03;81.11;102387.25;4973799;28;20054;-30
2022/07/11 01:24:06;;;;;;;9.02;1.88;;;;;;;18.04;81.21;102386.25;4972805;28;20086;-29
2022/07/11 01:26:34;;;;;;;8.23;1.67;;;;;;;18.06;80.88;102389.63;4973232;28;20050;-30
2022/07/11 01:29:08;;;;;;;7.10;1.80;;;;;;;18.08;81.09;102387.53;4971346;28;20026;-29
2022/07/11 01:31:34;;;;;;;7.82;2.50;;;;;;;18.10;80.84;102385.44;4973252;28;20049;-29
2022/07/11 01:33:59;;;;;;;10.38;2.55;;;;;;;18.11;80.95;102384.41;4973248;28;20109;-31
2022/07/11 01:36:24;;;;;;;6.93;2.00;;;;;;;18.14;80.92;102386.75;4972914;28;20480;-30
2022/07/11 01:38:50;;;;;;;9.27;1.75;;;;;;;18.19;80.48;102377.97;4973016;28;20041;-30
2022/07/11 01:41:15;;;;;;;12.65;2.03;;;;;;;18.21;80.25;102382.19;4972998;28;20027;-30
2022/07/11 01:43:40;;;;;;;9.90;1.88;;;;;;;18.21;80.03;102382.19;4972994;28;20038;-29
2022/07/11 01:46:06;;;;;;;6.72;1.80;;;;;;;18.19;80.36;102384.31;4972794;28;20033;-28
2022/07/11 01:48:31;;;;;;;9.40;2.17;;;;;;;18.17;80.84;102378.19;4973002;28;20090;-29
2022/07/11 01:50:56;;;;;;;8.00;1.90;;;;;;;18.17;80.58;102380.09;4973269;28;20049;-30
2022/07/11 01:53:22;;;;;;;6.18;1.80;;;;;;;18.19;80.75;102381.56;4971266;28;20039;-29
2022/07/11 01:55:47;;;;;;;7.60;1.85;;;;;;;18.24;80.58;102380.13;4972606;28;20027;-30
2022/07/11 01:58:13;;;;;;;8.07;1.73;;;;;;;18.24;80.24;102382.84;4973254;28;20404;-30
2022/07/11 02:00:38;;;;;;;9.57;1.92;;;;;;;18.23;80.11;102383.91;4972216;28;20393;-29
2022/07/11 02:03:04;;;;;;;8.55;2.00;;;;;;;18.23;80.17;102379.28;4972312;28;20030;-30
2022/07/11 02:05:29;;;;;;;9.88;2.10;;;;;;;18.15;80.33;102373.97;4972531;28;20030;-29
2022/07/11 02:08:12;;;;;;;9.57;1.80;;;;;;;18.11;80.68;102373.50;4972653;28;20034;-29
2022/07/11 02:10:45;;;;;;;6.47;1.70;;;;;;;18.08;80.90;102376.63;4972669;28;20034;-28
2022/07/11 02:13:13;;;;;;;6.85;1.85;;;;;;;18.14;80.35;102372.28;4972346;28;20089;-28
2022/07/11 02:15:38;;;;;;;3.50;1.42;;;;;;;18.09;80.11;102363.84;4971679;28;20336;-29
2022/07/11 02:18:04;;;;;;;6.43;1.77;;;;;;;18.04;80.91;102364.44;4972565;28;20042;-29
2022/07/11 02:20:29;;;;;;;9.27;2.00;;;;;;;18.02;81.33;102369.25;4972533;28;20542;-29
2022/07/11 02:22:56;;;;;;;8.85;1.85;;;;;;;18.00;81.00;102368.56;4971937;28;20034;-29
2022/07/11 02:25:22;;;;;;;7.47;2.17;;;;;;;18.04;80.86;102372.63;4971655;28;20023;-29
2022/07/11 02:27:47;;;;;;;11.57;1.67;;;;;;;18.01;80.76;102375.72;4972532;28;20478;-28
2022/07/11 02:30:13;;;;;;;6.10;1.33;;;;;;;18.04;80.93;102382.69;4972066;28;20062;-29
2022/07/11 02:35:06;;;;;;;5.45;1.42;;;;;;;18.03;80.95;102373.63;4984785;28;20055;-28
2022/07/11 02:37:32;;;;;;;9.10;1.60;;;;;;;18.06;80.70;102378.72;4990029;28;20037;-28
2022/07/11 02:39:57;;;;;;;6.28;2.10;;;;;;;18.09;80.54;102377.47;4989864;28;20031;-28
2022/07/11 02:42:23;;;;;;;5.25;1.40;;;;;;;18.08;80.15;102379.34;4989661;28;20455;-29
2022/07/11 02:44:48;;;;;;;11.73;1.52;;;;;;;18.03;80.56;102379.09;4988630;28;20048;-29
2022/07/11 02:47:16;;;;;;;5.78;1.50;;;;;;;17.98;80.91;102376.09;4989915;28;20030;-28
2022/07/11 02:49:41;;;;;;;;;;;;;;;17.98;80.97;102379.69;4990932;28;20037;-28
2022/07/11 02:52:07;;;;;;;4.00;1.13;;;;;;;17.97;80.94;102369.81;4989655;28;19910;-29
2022/07/11 02:54:33;;;;;;;7.00;1.10;;;;;;;17.96;81.11;102370.03;4988572;28;20034;-29
2022/07/11 02:56:58;;;;;;;8.00;1.50;;;;;;;17.92;80.98;102360.53;4989745;28;20516;-29
2022/07/11 02:59:23;;;;;;;6.95;1.42;;;;;;;17.91;81.24;102369.75;4992266;28;20061;-28
2022/07/11 03:01:50;;;;;;;3.95;1.05;;;;;;;17.91;81.09;102376.03;4993417;28;20117;-30
2022/07/11 03:04:15;;;;;;;5.25;1.10;;;;;;;17.95;81.05;102368.31;4976455;28;20385;-28
2022/07/11 03:06:41;;;;;;;5.45;1.17;;;;;;;17.97;80.17;102374.41;4992418;28;20034;-28
2022/07/11 03:09:07;;;;;;;4.97;1.13;;;;;;;17.96;80.28;102370.03;4994176;28;20034;-28
2022/07/11 03:11:33;;;;;;;2.90;1.10;;;;;;;17.97;79.92;102371.69;4993721;28;20137;-29
2022/07/11 03:13:58;;;;;;;5.40;1.30;;;;;;;17.90;80.14;102368.06;4993937;28;20097;-29
2022/07/11 03:16:24;;;;;;;5.75;1.25;;;;;;;17.87;80.45;102369.28;4994159;28;20219;-29
2022/07/11 03:18:49;;;;;;;4.43;1.42;;;;;;;17.88;80.38;102364.69;4994165;28;20030;-29
2022/07/11 03:21:15;;;;;;;4.05;1.02;;;;;;;17.85;80.42;102373.22;4993320;28;20027;-29
2022/07/11 03:23:40;;;;;;;6.32;0.95;;;;;;;17.82;80.48;102368.19;4993372;28;20030;-28
2022/07/11 03:26:06;;;;;;;5.57;0.90;;;;;;;17.83;80.53;102378.06;4993505;28;20537;-29
2022/07/11 03:28:31;;;;;;;2.97;0.95;;;;;;;17.84;80.24;102379.72;4993538;28;20030;-28
2022/07/11 03:30:56;;;;;;;1.92;0.93;;;;;;;17.83;80.23;102378.06;4993486;28;20117;-29
2022/07/11 03:33:22;;;;;;;6.57;1.42;;;;;;;17.85;80.03;102385.00;4999116;28;20052;-30
2022/07/11 03:35:48;;;;;;;2.70;0.80;;;;;;;17.87;79.74;102373.88;4998534;28;20033;-29
2022/07/11 03:38:17;;;;;;;7.53;1.27;;;;;;;17.87;79.16;102379.34;5012827;28;20104;-29
2022/07/11 03:40:43;;;;;;;5.90;1.13;;;;;;;17.88;78.96;102389.22;5011801;28;20021;-29
2022/07/11 03:43:08;;;;;;;2.42;1.02;;;;;;;17.84;78.85;102380.56;5011951;28;20041;-29
2022/07/11 03:45:34;;;;;;;4.70;1.30;;;;;;;17.83;79.42;102378.06;5011011;28;20136;-29
2022/07/11 03:47:59;;;;;;;2.38;1.17;;;;;;;17.78;79.08;102376.72;5012762;28;20064;-29
2022/07/11 03:50:25;;;;;;;4.47;1.13;;;;;;;17.74;79.49;102382.72;5012926;28;20037;-28
2022/07/11 03:52:50;;;;;;;1.33;0.82;;;;;;;17.68;79.71;102380.78;5010809;28;20030;-29
2022/07/11 03:55:15;;;;;;;3.70;1.00;;;;;;;17.67;79.85;102379.09;5012361;28;20036;-29
2022/07/11 03:57:41;;;;;;;2.72;1.10;;;;;;;17.65;79.72;102386.59;5012304;28;20112;-28
2022/07/11 04:00:10;;;;;;;4.38;1.30;;;;;;;17.61;79.78;102380.69;5012256;28;20061;-29
2022/07/11 04:02:35;;;;;;;4.32;1.30;;;;;;;17.57;79.92;102378.56;5012535;28;20120;-27
2022/07/11 04:05:01;;;;;;;4.22;1.08;;;;;;;17.51;80.30;102386.44;5011137;28;20026;-28
2022/07/11 04:07:29;;;;;;;3.38;1.20;;;;;;;17.50;80.65;102378.47;5012313;28;20034;-28
2022/07/11 04:09:55;;;;;;;5.18;1.50;;;;;;;17.53;80.81;102388.97;5012393;28;20056;-29
2022/07/11 04:12:21;;;;;;;3.67;1.58;;;;;;;17.52;80.80;102381.84;5010831;28;20037;-29
2022/07/11 04:14:46;;;;;;;5.13;1.40;;;;;;;17.53;80.96;102378.06;5010566;28;20018;-28
2022/07/11 04:17:12;;;;;;;5.30;1.58;;;;;;;17.60;80.83;102389.06;5012326;28;20041;-29
2022/07/11 04:19:38;;;;;;;6.57;2.15;;;;;;;17.65;80.85;102381.16;5012580;28;20022;-28
2022/07/11 04:22:04;;;;;;;7.72;1.40;;;;;;;17.67;80.85;102388.09;5010716;28;20034;-28
2022/07/11 04:24:29;;;;;;;1.73;1.20;;;;;;;17.61;80.98;102388.84;5011803;28;20041;-28
2022/07/11 04:26:54;;;;;;;6.70;1.52;;;;;;;17.55;81.25;102378.72;5011836;28;20501;-29
2022/07/11 04:29:20;;;;;;;5.22;1.50;;;;;;;17.54;81.49;102379.78;5011864;28;20436;-29
2022/07/11 04:31:45;;;;;;;4.88;1.63;;;;;;;17.59;81.38;102382.78;5012187;28;20449;-28
2022/07/11 04:34:10;;;;;;;3.95;1.42;;;;;;;17.56;81.08;102377.69;5011889;28;20425;-28
2022/07/11 04:36:36;;;;;;;3.70;1.38;;;;;;;17.57;81.31;102373.94;5010747;28;20037;-28
2022/07/11 04:39:01;;;;;;;3.00;1.27;;;;;;;17.57;81.07;102378.56;4995813;28;20041;-28
2022/07/11 04:41:26;;;;;;;3.88;1.38;;;;;;;17.54;81.49;102375.19;5002427;28;20096;-31
2022/07/11 04:43:52;;;;;;;3.75;1.38;;;;;;;17.59;81.70;102371.88;5011927;28;20113;-29
2022/07/11 04:46:17;;;;;;;8.85;2.08;;;;;;;17.66;80.90;102380.94;5001196;28;20088;-28
2022/07/11 04:48:42;;;;;;;3.03;1.40;;;;;;;17.60;81.43;102376.28;5008165;28;20497;-28
2022/07/11 04:51:08;;;;;;;3.33;1.30;;;;;;;17.57;81.81;102379.38;5011718;28;20030;-30
2022/07/11 04:53:34;;;;;;;3.67;1.23;;;;;;;17.55;81.87;102373.28;5012347;28;20038;-28
2022/07/11 04:55:59;;;;;;;4.22;1.40;;;;;;;17.56;82.05;102388.56;5011102;28;20033;-28
2022/07/11 04:58:25;;;;;;;4.13;1.27;;;;;;;17.55;81.87;102389.63;5011269;28;20041;-27
2022/07/11 05:00:51;;;;;;;3.53;1.70;;;;;;;17.58;81.90;102391.97;5009805;28;20022;-29
2022/07/11 05:03:16;;;;;;;3.42;1.45;;;;;;;17.61;81.72;102386.13;5012412;28;20064;-28
2022/07/11 05:05:42;;;;;;;4.72;1.52;;;;;;;17.60;81.95;102386.34;5011309;28;20063;-30
2022/07/11 05:08:07;;;;;;;2.88;1.40;;;;;;;17.66;82.36;102389.13;5009926;28;20430;-28
2022/07/11 05:10:34;;;;;;;6.47;1.70;;;;;;;17.76;81.35;102388.81;5011327;28;20076;-28
2022/07/11 05:12:59;;;;;;;9.50;1.60;;;;;;;17.80;81.38;102389.31;5010206;28;20037;-30
2022/07/11 05:15:25;;;;;;;6.80;1.40;;;;;;;17.83;81.33;102400.69;5009781;28;20051;-29
2022/07/11 05:17:50;;;;;;;4.10;1.40;;;;;;;17.81;81.45;102401.91;5011299;28;20030;-28
2022/07/11 05:20:16;;;;;;;4.03;1.20;;;;;;;17.77;81.19;102413.16;5000250;28;20020;-27
2022/07/11 05:22:41;;;;;;;5.60;1.50;;;;;;;17.69;81.43;102416.00;5009697;28;20056;-28
2022/07/11 05:25:07;;;;;;;4.43;1.75;;;;;;;17.68;82.03;102406.13;5009547;28;20032;-29
2022/07/11 05:27:32;;;;;;;3.08;1.65;;;;;;;17.69;81.85;102407.81;5010544;28;20045;-29
2022/07/11 05:29:58;;;;;;;7.93;1.83;;;;;;;17.68;82.07;102406.13;5011034;28;20025;-30
2022/07/11 05:32:23;;;;;;;6.10;1.67;;;;;;;17.65;82.00;102414.66;5009629;28;20030;-29
2022/07/11 05:34:48;;;;;;;6.55;2.13;;;;;;;17.59;82.44;102415.44;5010155;28;20038;-27
2022/07/11 05:37:14;;;;;;;6.93;2.47;;;;;;;17.55;83.05;102409.50;5010093;28;20430;-29
2022/07/11 05:39:39;;;;;;;7.85;1.95;;;;;;;17.59;83.40;102404.56;5009590;28;20477;-29
2022/07/11 05:42:05;;;;;;;3.08;1.88;;;;;;;17.65;82.80;102414.66;5010283;28;20033;-29
2022/07/11 05:44:30;;;;;;;4.85;1.90;;;;;;;17.69;82.84;102421.44;5002149;28;20032;-29
2022/07/11 05:47:00;;;;;;;5.15;2.10;;;;;;;17.65;82.78;102420.13;5009357;28;20153;-29
2022/07/11 05:49:25;;;;;;;8.45;2.10;;;;;;;17.62;82.95;102415.06;5001108;28;20022;-29
2022/07/11 05:51:51;;;;;;;4.72;1.77;;;;;;;17.66;83.37;102427.25;4991908;28;20030;-29
2022/07/11 05:54:16;;;;;;;4.20;1.90;;;;;;;17.73;82.80;102414.56;5002855;28;20022;-29
2022/07/11 05:56:42;;;;;;;6.53;2.42;;;;;;;17.75;82.57;102415.22;5000296;28;20034;-28
2022/07/11 05:59:07;;;;;;;6.22;1.88;;;;;;;17.75;82.57;102412.50;5008569;28;20034;-29
2022/07/11 06:01:33;;;;;;;5.03;2.40;;;;;;;17.82;82.38;102414.47;5010055;28;20088;-28
2022/07/11 06:03:59;;;;;;;6.65;1.70;;;;;;;17.86;82.31;102421.25;5009066;28;20029;-29
2022/07/11 06:06:25;;;;;;;4.22;1.80;;;;;;;17.87;82.41;102417.47;5010714;28;20399;-29
2022/07/11 06:08:50;;;;;;;6.80;1.80;;;;;;;17.94;82.41;102413.78;5008803;28;20029;-29
2022/07/11 06:11:16;;;;;;;6.28;1.50;;;;;;;18.12;81.61;102409.78;5008051;28;20028;-28
2022/07/11 06:13:43;;;;;;;4.53;1.33;;;;;;;18.15;80.77;102410.25;5009284;28;20033;-29
2022/07/11 06:16:09;;;;;;;;;;;;;;;18.19;80.27;102407.97;5007997;28;20114;-29
2022/07/11 06:18:35;;;;;;;4.43;1.88;;;;;;;18.17;80.53;102408.16;5010005;28;19999;-29
2022/07/11 06:21:01;;;;;;;8.40;1.77;;;;;;;18.12;80.57;102401.63;5010097;28;20455;-29
2022/07/11 06:23:27;;;;;;;7.13;2.10;;;;;;;18.10;80.93;102393.63;5010464;28;20666;-29
2022/07/11 06:25:53;;;;;;;8.90;1.90;;;;;;;18.06;81.08;102394.19;5009860;28;20057;-29
2022/07/11 06:28:18;;;;;;;8.93;2.10;;;;;;;18.08;80.98;102397.59;5009720;28;20065;-28
2022/07/11 06:30:44;;;;;;;10.70;2.78;;;;;;;18.10;81.38;102390.91;5010377;28;20103;-29
2022/07/11 06:33:09;;;;;;;11.25;2.10;;;;;;;18.15;81.45;102402.06;5009129;28;20536;-27
2022/07/11 06:35:35;;;;;;;4.95;1.85;;;;;;;18.20;80.79;102402.31;5009611;28;20058;-28
2022/07/11 06:38:00;;;;;;;18.38;2.20;;;;;;;18.19;80.65;102405.22;5009801;28;20045;-29
2022/07/11 06:40:25;;;;;;;5.32;1.80;;;;;;;18.19;80.48;102406.09;5009819;28;20485;-28
2022/07/11 06:42:51;;;;;;;6.63;1.60;;;;;;;18.40;79.58;102402.53;5010713;28;20068;-28
2022/07/11 06:45:16;;;;;;;6.28;1.42;;;;;;;18.45;79.34;102410.09;5008354;28;20079;-28
2022/07/11 06:47:41;;;;;;;3.13;1.73;;;;;;;18.46;79.20;102411.81;5010212;28;20026;-29
2022/07/11 06:50:07;;;;;;;6.55;1.67;;;;;;;18.42;79.16;102410.50;5009922;28;20060;-28
2022/07/11 06:52:33;;;;;;;6.20;1.45;;;;;;;18.39;79.29;102405.44;5010396;28;20034;-29
2022/07/11 06:54:58;;;;;;;3.17;1.63;;;;;;;18.49;79.02;102411.41;5010010;28;20026;-28
2022/07/11 06:57:24;;;;;;;7.78;1.40;;;;;;;18.54;78.74;102410.81;5008510;28;20033;-28
2022/07/11 06:59:49;;;;;;;2.97;1.38;;;;;;;18.54;78.91;102408.94;5009626;28;20018;-28
2022/07/11 07:02:14;;;;;;;5.90;1.75;;;;;;;18.51;78.75;102409.31;5009665;28;20436;-29
2022/07/11 07:04:40;;;;;;;5.65;1.70;;;;;;;18.45;78.68;102410.09;5008190;28;20057;-28
2022/07/11 07:07:05;;;;;;;4.80;1.40;;;;;;;18.45;78.92;102421.00;5010064;28;20025;-29
2022/07/11 07:09:31;;;;;;;4.25;1.33;;;;;;;18.43;78.77;102433.97;5009891;28;20038;-29
2022/07/11 07:11:56;;;;;;;4.18;1.38;;;;;;;18.46;78.51;102430.88;5010019;28;20104;-29
2022/07/11 07:14:21;;;;;;;1.17;1.00;;;;;;;18.63;78.44;102428.72;5009829;28;20026;-29
2022/07/11 07:16:47;;;;;;;4.05;1.30;;;;;;;18.67;77.27;102430.03;5010529;28;20026;-29
2022/07/11 07:19:13;;;;;;;1.45;1.10;;;;;;;18.67;78.25;102429.16;5009849;28;20126;-27
2022/07/11 07:21:38;;;;;;;4.15;1.60;;;;;;;18.68;77.84;102422.66;5009830;28;20034;-29
2022/07/11 07:24:05;;;;;;;1.83;1.27;;;;;;;18.78;77.46;102428.66;5009284;28;20030;-29
2022/07/11 07:26:30;;;;;;;1.80;1.25;;;;;;;18.98;76.17;102436.97;5008619;28;20030;-28
2022/07/11 07:28:56;;;;;;;6.05;1.15;;;;;;;18.97;75.64;102435.31;5008105;28;20037;-28
2022/07/11 07:31:22;;;;;;;3.72;1.17;;;;;;;18.97;75.65;102444.31;4991963;28;20480;-28
2022/07/11 07:33:48;;;;;;;3.08;1.02;;;;;;;18.98;75.72;102437.81;5006285;28;20062;-26
2022/07/11 07:36:14;;;;;;;1.83;1.20;;;;;;;18.85;75.64;102443.19;5008094;28;20370;-28
2022/07/11 07:38:41;;;;;;;8.50;1.33;;;;;;;18.88;76.23;102450.13;5009356;28;20030;-28
2022/07/11 07:41:06;;;;;;;5.65;1.10;;;;;;;18.89;75.58;102444.47;5010154;28;20076;-26
2022/07/11 07:43:32;;;;;;;5.07;1.20;;;;;;;18.92;75.35;102444.09;5007503;28;20026;-29
2022/07/11 07:45:57;;;;;;;3.13;1.30;;;;;;;19.01;75.02;102437.44;5011747;28;20033;-29
2022/07/11 07:48:23;;;;;;;2.20;1.30;;;;;;;18.90;75.03;102434.41;5012074;28;20049;-29
2022/07/11 07:50:49;;;;;;;5.75;1.40;;;;;;;18.75;76.55;102429.06;5011467;28;20101;-28
2022/07/11 07:53:15;;;;;;;6.15;1.58;;;;;;;18.75;76.83;102420.88;5010621;28;20441;-29
2022/07/11 07:55:40;;;;;;;1.95;1.50;;;;;;;18.70;76.29;102420.59;5011389;28;20065;-27
2022/07/11 07:58:05;;;;;;;4.65;1.33;;;;;;;18.61;77.79;102431.63;5012162;28;20022;-29
2022/07/11 08:03:19;;;;;;;5.03;1.58;;;;;;;19.11;76.04;102436.22;4996904;28;20030;-28
2022/07/11 08:05:45;;;;;;;2.50;1.25;;;;;;;19.15;75.95;102438.38;4993270;28;20542;-28
2022/07/11 08:08:10;;;;;;;3.97;1.40;;;;;;;19.25;74.99;102438.03;4998160;28;20038;-29
2022/07/11 08:10:36;;;;;;;2.33;1.20;;;;;;;19.15;75.13;102438.38;5009990;28;20444;-29
2022/07/11 08:13:02;;;;;;;5.18;1.70;;;;;;;19.20;74.80;102435.03;5010140;28;20445;-29
2022/07/11 08:15:28;;;;;;;5.78;1.33;;;;;;;19.28;74.87;102434.88;5010589;28;20481;-29
2022/07/11 08:17:53;;;;;;;4.43;1.60;;;;;;;19.31;75.03;102439.94;5012930;28;20045;-30
2022/07/11 08:20:19;;;;;;;5.38;1.20;;;;;;;19.40;74.76;102435.16;5012467;28;20734;-29
2022/07/11 08:22:44;;;;;;;3.80;1.40;;;;;;;19.44;74.42;102440.00;5012165;28;20109;-28
2022/07/11 08:25:09;;;;;;;1.67;1.08;;;;;;;19.47;74.38;102442.31;5013014;28;20040;-28
2022/07/11 08:27:37;;;;;;;2.55;1.15;;;;;;;19.48;74.40;102448.63;5010098;28;20030;-28
2022/07/11 08:30:03;;;;;;;;;;;;;;;19.59;74.78;102450.81;5012644;28;20037;-29
2022/07/11 08:32:28;;;;;;;5.68;1.30;;;;;;;19.70;73.90;102450.25;5012595;28;20217;-29
2022/07/11 08:34:54;;;;;;;2.58;1.13;;;;;;;19.88;73.82;102448.81;5007763;28;20041;-30
2022/07/11 08:37:19;;;;;;;3.58;1.10;;;;;;;20.01;72.03;102454.38;5001458;28;20031;-29
2022/07/11 08:39:44;;;;;;;3.22;1.20;;;;;;;20.18;71.52;102449.34;4995700;28;20073;-29
2022/07/11 08:42:10;;;;;;;1.95;1.00;;;;;;;20.25;70.70;102450.22;5004656;28;20028;-29
2022/07/11 08:44:37;;;;;;;5.80;1.10;;;;;;;20.19;70.79;102448.28;4990665;28;20125;-29
2022/07/11 08:47:03;;;;;;;1.85;1.10;;;;;;;20.31;70.63;102445.81;5005795;28;20022;-29
2022/07/11 08:49:29;;;;;;;7.50;1.58;;;;;;;20.33;70.45;102441.81;4993947;28;20079;-29
2022/07/11 08:51:55;;;;;;;3.00;1.10;;;;;;;20.33;70.18;102451.91;5010694;28;20033;-28
2022/07/11 08:54:20;;;;;;;2.03;0.90;;;;;;;20.39;69.97;102451.91;5011425;28;20048;-29
2022/07/11 08:56:49;;;;;;;3.03;1.00;;;;;;;20.28;70.09;102448.97;5010711;28;20022;-29
2022/07/11 08:59:17;;;;;;;0.70;0.70;;;;;;;20.35;70.08;102445.19;5003571;28;20034;-30
2022/07/11 09:01:45;;;;;;;1.63;0.75;;;;;;;20.48;69.57;102446.22;4997219;28;20088;-30
2022/07/11 09:04:10;;;;;;;;;;;;;;;20.58;69.70;102447.53;5011537;28;20032;-29
2022/07/11 09:06:35;;;;;;;0.85;0.60;;;;;;;21.34;67.73;102437.97;5009162;28;19913;-29
2022/07/11 09:09:01;;;;;;;1.50;0.77;;;;;;;21.63;65.81;102431.16;5009971;28;20121;-30
2022/07/11 09:11:28;;;;;;;2.33;0.80;;;;;;;21.92;63.36;102434.41;5010492;28;20033;-29
2022/07/11 09:13:53;;;;;;;1.38;0.68;;;;;;;21.98;62.91;102430.78;5011197;28;20036;-28
2022/07/11 09:16:19;;;;;;;2.53;0.80;;;;;;;22.09;62.89;102434.72;5001265;28;20030;-30
2022/07/11 09:18:44;;;;;;;0.80;0.50;;;;;;;22.18;62.95;102435.31;5002695;28;20030;-28
2022/07/11 09:26:46;;;;;;;;;;;;;;;22.53;62.05;102441.22;5008181;28;20064;-28
2022/07/11 09:29:16;;;;;;;1.65;0.70;;;;;;;22.67;60.95;102452.91;5010946;28;19978;-28
2022/07/11 09:31:44;;;;;;;4.32;0.90;;;;;;;22.72;60.25;102442.97;4992501;28;20018;-28
2022/07/11 09:34:15;;;;;;;1.55;1.10;;;;;;;23.05;58.57;102438.25;5003277;28;20100;-29
2022/07/11 09:36:42;;;;;;;2.40;0.70;;;;;;;23.06;58.73;102448.16;5007179;28;20042;-29
2022/07/11 09:39:18;;;;;;;2.63;0.93;;;;;;;22.90;59.07;102442.16;5010499;28;20038;-30
2022/07/11 09:41:45;;;;;;;1.55;1.00;;;;;;;22.78;59.88;102447.56;5010860;28;20552;-28
2022/07/11 09:44:11;;;;;;;4.43;0.87;;;;;;;22.96;59.39;102446.78;5010717;28;20030;-28
2022/07/11 09:46:37;;;;;;;1.83;0.85;;;;;;;23.27;58.56;102447.72;5000006;28;20285;-28
2022/07/11 09:49:03;;;;;;;3.88;1.13;;;;;;;23.33;57.84;102441.34;4992174;28;20223;-29
2022/07/11 09:51:31;;;;;;;3.08;1.00;;;;;;;23.32;57.72;102445.13;5009405;28;20044;-28
2022/07/11 09:53:57;;;;;;;1.20;0.90;;;;;;;23.27;57.74;102435.91;5010305;28;20040;-29
2022/07/11 09:56:43;;;;;;;4.18;1.20;;;;;;;23.38;57.36;102438.75;5010650;28;20105;-30
2022/07/11 09:59:15;;;;;;;3.22;1.20;;;;;;;23.23;58.14;102446.53;5010447;28;20036;-29
2022/07/11 10:01:41;;;;;;;3.40;1.40;;;;;;;23.13;58.80;102435.22;5001126;28;20131;-29
2022/07/11 10:04:07;;;;;;;7.80;1.40;;;;;;;23.83;58.45;102445.84;5009510;28;20356;-29
2022/07/11 10:06:33;;;;;;;4.20;1.20;;;;;;;24.90;54.03;102439.53;5008560;28;20426;-28
2022/07/11 10:08:58;;;;;;;2.35;1.20;;;;;;;26.04;51.69;102437.06;5009705;28;20327;-28
2022/07/11 10:11:23;;;;;;;1.52;0.63;;;;;;;26.65;48.02;102444.78;4995321;28;20034;-27
2022/07/11 10:13:50;;;;;;;3.17;1.00;;;;;;;26.38;48.49;102439.84;4999300;28;20355;-28
2022/07/11 10:16:38;;;;;;;3.97;1.30;;;;;;;26.04;48.76;102437.06;5006343;28;20046;-29
2022/07/11 10:19:22;;;;;;;1.42;0.77;;;;;;;25.98;49.51;102431.69;4972902;28;20421;-30
2022/07/11 10:21:54;;;;;;;7.20;1.27;;;;;;;25.83;49.09;102432.22;5008190;28;20053;-30
2022/07/11 10:24:38;;;;;;;4.13;1.10;;;;;;;25.68;51.27;102429.16;5010166;28;20392;-30
2022/07/11 10:27:36;;;;;;;2.65;1.10;;;;;;;26.28;49.52;102436.94;5009099;28;20125;-29
2022/07/11 10:30:01;;;;;;;1.42;0.90;;;;;;;26.54;48.13;102443.78;5009038;28;20431;-30
2022/07/11 10:32:27;;;;;;;2.47;1.00;;;;;;;27.09;46.97;102439.34;5004119;28;20079;-29
2022/07/11 10:35:11;;;;;;;4.72;1.17;;;;;;;27.26;46.83;102437.41;5006262;28;20151;-29
2022/07/11 10:37:51;;;;;;;0.70;0.70;;;;;;;27.51;46.08;102436.06;5010284;28;20079;-29
2022/07/11 10:40:43;;;;;;;1.92;0.98;;;;;;;28.07;44.53;102434.00;5009510;28;20083;-28
2022/07/11 10:43:09;;;;;;;1.70;0.80;;;;;;;28.89;42.89;102440.25;5009722;28;20034;-29
2022/07/11 10:45:57;;;;;;;1.20;0.90;;;;;;;29.68;40.71;102442.06;5006483;28;20101;-29
2022/07/11 10:48:24;;;;;;;2.25;1.02;;;;;;;29.87;40.78;102438.78;4990527;28;20033;-30
2022/07/11 10:51:05;;;;;;;1.55;0.88;;;;;;;29.84;40.09;102436.56;4999913;28;20032;-29
2022/07/11 10:53:39;;;;;;;2.00;0.98;;;;;;;30.07;39.76;102438.84;5008742;28;20088;-29
2022/07/11 10:56:14;;;;;;;2.10;1.00;;;;;;;30.16;39.27;102436.34;5009819;28;20034;-30
2022/07/11 10:58:45;;;;;;;1.52;0.98;;;;;;;31.04;37.98;102441.63;5009242;28;20500;-28
2022/07/11 11:01:15;;;;;;;4.28;0.90;;;;;;;30.26;39.02;102433.63;5001326;28;20066;-29
2022/07/11 11:03:42;;;;;;;3.00;0.90;;;;;;;29.40;40.22;102429.44;4990396;28;20106;-29
2022/07/11 11:06:07;;;;;;;;;;;;;;;28.58;41.89;102434.47;4998462;28;20076;-30
2022/07/11 11:08:33;;;;;;;4.33;1.00;;;;;;;27.62;45.23;102431.50;5009861;28;20311;-29
2022/07/11 11:10:59;;;;;;;1.52;0.90;;;;;;;27.51;44.77;102430.53;5009507;28;20041;-29
2022/07/11 11:13:26;;;;;;;1.60;1.00;;;;;;;28.52;43.43;102424.44;5009840;28;20084;-29
2022/07/11 11:15:56;;;;;;;2.10;1.40;;;;;;;28.35;42.99;102430.06;5001986;28;20027;-28
2022/07/11 11:21:01;;;;;;;4.43;0.70;;;;;;;29.16;41.81;102431.00;5005358;28;20452;-29
2022/07/11 11:23:30;;;;;;;0.95;0.70;;;;;;;29.67;39.27;102429.28;5001797;28;20030;-29
2022/07/11 11:26:15;;;;;;;1.80;0.88;;;;;;;30.25;38.73;102423.59;5000010;28;20033;-29
2022/07/11 11:28:56;;;;;;;0.85;0.68;;;;;;;30.30;38.77;102423.59;4996459;28;20388;-29
2022/07/11 11:31:21;;;;;;;2.60;0.82;;;;;;;29.65;39.22;102419.56;5013212;28;20092;-30
2022/07/11 11:33:48;;;;;;;3.78;0.90;;;;;;;29.22;39.88;102427.13;5010984;28;20046;-30
2022/07/11 11:36:17;;;;;;;0.93;0.63;;;;;;;29.34;40.48;102418.63;5008942;28;20053;-28
2022/07/11 11:38:43;;;;;;;3.78;0.90;;;;;;;29.03;40.99;102413.69;5013412;28;20030;-30